Time;durP1;ratioP1;P1;durP2;ratioP2;P2;SDS_P1;SDS_P2;PMS_P1;PMS_P2;Temp;Humidity;BMP_temperature;BMP_pressure;BME280_temperature;BME280_humidity;BME280_pressure;Samples;Min_cycle;Max_cycle;Signal;HPM_P1;HPM_P2
2023/05/10 00:14:20;;;;;;;10.43;4.15;;;;;;;8.02;52.96;100234.75;30847541;28;105646;-66
2023/05/10 00:29:20;;;;;;;9.00;4.93;;;;;;;7.76;54.49;100224.94;30846761;28;97669;-66
2023/05/10 00:44:20;;;;;;;7.07;4.30;;;;;;;7.47;54.85;100224.31;30864814;28;96640;-67
2023/05/10 00:59:21;;;;;;;9.15;4.55;;;;;;;7.26;55.54;100212.16;30865293;28;96796;-67
2023/05/10 01:14:21;;;;;;;10.18;4.80;;;;;;;7.06;56.51;100201.63;30864219;28;96651;-67
2023/05/10 01:29:39;;;;;;;10.00;4.97;;;;;;;6.89;57.35;100205.06;30860780;28;96956;-67
2023/05/10 01:44:44;;;;;;;7.25;4.55;;;;;;;6.78;57.79;100208.75;30859716;28;97071;-66
2023/05/10 01:59:49;;;;;;;10.80;5.75;;;;;;;6.58;58.18;100197.38;30858765;28;96675;-68
2023/05/10 02:14:52;;;;;;;11.18;5.78;;;;;;;6.49;58.89;100198.25;30857465;28;96953;-66
2023/05/10 02:29:53;;;;;;;14.60;5.33;;;;;;;6.48;59.88;100180.69;30856372;28;96829;-68
2023/05/10 02:44:59;;;;;;;12.65;5.65;;;;;;;6.40;60.39;100184.06;30855745;28;96827;-67
2023/05/10 03:00:00;;;;;;;11.30;5.90;;;;;;;6.33;60.40;100182.94;30851660;28;97146;-68
2023/05/10 03:15:13;;;;;;;10.00;5.20;;;;;;;6.36;61.16;100182.69;30851364;28;97740;-69
2023/05/10 03:30:14;;;;;;;8.98;5.30;;;;;;;6.49;61.32;100182.34;30849431;28;97194;-68
2023/05/10 03:45:14;;;;;;;10.60;5.03;;;;;;;6.73;61.42;100174.75;30847617;28;97326;-69
2023/05/10 04:00:15;;;;;;;10.15;5.10;;;;;;;7.07;60.35;100171.53;30845838;28;96749;-66
2023/05/10 04:15:16;;;;;;;8.13;4.85;;;;;;;7.42;60.05;100175.22;30861645;28;96625;-68
2023/05/10 04:30:16;;;;;;;10.63;4.75;;;;;;;7.75;59.74;100178.19;30866642;28;97173;-65
2023/05/10 04:45:17;;;;;;;10.40;4.63;;;;;;;8.07;58.65;100176.78;30859441;28;97000;-67
2023/05/10 05:00:17;;;;;;;15.30;6.15;;;;;;;8.51;57.89;100167.97;30853107;28;97410;-67
2023/05/10 05:15:18;;;;;;;12.23;4.90;;;;;;;9.09;57.28;100174.38;30857686;28;97548;-66
2023/05/10 05:30:18;;;;;;;9.13;5.00;;;;;;;9.66;56.06;100164.84;30852224;28;97599;-67
2023/05/10 05:45:18;;;;;;;8.23;4.82;;;;;;;10.05;54.26;100169.53;30861845;28;97273;-69
2023/05/10 06:00:19;;;;;;;10.50;4.97;;;;;;;10.56;53.36;100176.47;30866907;28;96807;-68
2023/05/10 06:15:19;;;;;;;9.32;4.75;;;;;;;11.07;51.99;100174.31;30860026;28;112615;-68
2023/05/10 06:30:22;;;;;;;9.57;4.63;;;;;;;11.68;51.35;100165.59;30857197;28;97422;-70
2023/05/10 06:45:23;;;;;;;7.57;3.87;;;;;;;12.47;49.17;100181.28;30858764;28;96998;-70
2023/05/10 07:00:23;;;;;;;6.25;3.75;;;;;;;13.17;48.02;100160.41;30854303;28;110510;-68
2023/05/10 07:15:24;;;;;;;8.38;4.05;;;;;;;13.98;46.54;100155.88;30855232;28;96667;-68
2023/05/10 07:30:24;;;;;;;6.60;3.63;;;;;;;14.71;45.44;100128.78;30850943;28;104048;-67
2023/05/10 07:45:24;;;;;;;9.05;3.60;;;;;;;15.31;44.42;100114.72;30850800;28;106357;-73
2023/05/10 08:00:25;;;;;;;5.03;2.90;;;;;;;16.06;43.08;100120.81;30847392;28;113069;-67
2023/05/10 08:15:27;;;;;;;6.90;2.87;;;;;;;16.51;42.50;100117.44;30851677;28;97453;-69
2023/05/10 08:30:27;;;;;;;4.90;2.72;;;;;;;16.88;41.44;100117.69;30847939;28;110805;-70
2023/05/10 08:45:32;;;;;;;5.88;2.35;;;;;;;17.34;40.89;100098.84;30851015;28;101145;-64
2023/05/10 09:00:33;;;;;;;7.40;3.20;;;;;;;18.45;39.90;100099.16;30861277;28;97745;-71
2023/05/10 09:15:33;;;;;;;7.17;2.77;;;;;;;18.57;38.91;100108.13;30871186;28;96842;-72
2023/05/10 09:30:34;;;;;;;8.32;2.92;;;;;;;18.82;38.41;100115.34;30866442;28;96738;-65
2023/05/10 09:45:35;;;;;;;5.03;2.60;;;;;;;19.05;37.08;100120.03;30864488;28;98839;-69
2023/05/10 10:00:37;;;;;;;7.90;3.00;;;;;;;20.19;36.42;100069.66;30866421;28;96746;-68
2023/05/10 10:15:38;;;;;;;4.37;2.40;;;;;;;20.85;34.88;100076.69;30861101;28;96649;-70
2023/05/10 10:30:45;;;;;;;5.33;2.33;;;;;;;21.26;33.81;100064.72;30859784;28;97431;-71
2023/05/10 10:46:16;;;;;;;3.37;1.93;;;;;;;21.57;33.32;100068.00;30805101;28;96673;-70
2023/05/10 11:01:18;;;;;;;4.43;2.50;;;;;;;21.57;32.75;100054.44;30736757;28;97114;-67
2023/05/10 11:16:23;;;;;;;3.33;1.87;;;;;;;22.18;31.57;100072.69;30762410;28;96726;-71
2023/05/10 11:31:26;;;;;;;6.33;2.03;;;;;;;22.79;30.69;100031.94;30852618;28;96759;-69
2023/05/10 11:46:28;;;;;;;7.13;2.30;;;;;;;23.05;30.27;100051.19;30851578;28;97084;-68
2023/05/10 12:01:28;;;;;;;4.50;2.10;;;;;;;22.99;30.07;100050.34;30847791;28;98502;-69
2023/05/10 12:16:29;;;;;;;7.47;2.10;;;;;;;22.76;29.72;100040.59;30770078;28;97473;-68
2023/05/10 12:31:30;;;;;;;6.15;1.70;;;;;;;22.73;30.46;100037.56;30796355;28;97613;-66
2023/05/10 12:46:30;;;;;;;3.97;1.47;;;;;;;22.11;30.60;100034.06;30864534;28;100563;-70
2023/05/10 13:01:31;;;;;;;4.65;2.00;;;;;;;22.26;29.93;100042.41;30865433;28;97158;-66
2023/05/10 13:16:31;;;;;;;3.13;1.50;;;;;;;21.86;30.68;100026.41;30865519;28;106892;-70
2023/05/10 13:31:32;;;;;;;2.43;1.40;;;;;;;21.93;30.63;100030.56;30853459;28;98176;-68
2023/05/10 13:46:32;;;;;;;4.20;1.63;;;;;;;21.85;30.06;100014.72;30861330;28;96978;-68
2023/05/10 14:01:33;;;;;;;4.03;2.10;;;;;;;21.62;30.09;100007.59;30861535;28;97080;-67
2023/05/10 14:16:33;;;;;;;2.60;1.40;;;;;;;21.70;30.31;100011.81;30857666;28;97422;-68
2023/05/10 14:31:33;;;;;;;2.70;1.60;;;;;;;21.44;30.46;100009.47;30856298;28;108514;-67
2023/05/10 14:46:34;;;;;;;2.80;1.40;;;;;;;21.39;30.43;99995.03;30856603;28;97314;-68
2023/05/10 15:01:37;;;;;;;2.20;1.20;;;;;;;21.41;30.15;99987.47;30854140;28;96853;-68
2023/05/10 15:16:37;;;;;;;1.43;1.20;;;;;;;21.18;30.38;100000.13;30837853;28;98384;-68
2023/05/10 15:31:39;;;;;;;8.17;1.83;;;;;;;20.77;30.61;99999.41;30807640;28;97765;-67
2023/05/10 15:46:39;;;;;;;2.80;1.70;;;;;;;20.73;31.39;99998.25;30778022;28;97468;-67
2023/05/10 16:01:40;;;;;;;2.00;1.40;;;;;;;20.33;32.15;99988.25;30786098;28;96811;-68
2023/05/10 16:16:40;;;;;;;1.98;1.30;;;;;;;20.40;32.58;99999.75;30818063;28;97339;-67
2023/05/10 16:31:40;;;;;;;2.03;1.15;;;;;;;20.12;32.31;100009.47;30839484;28;102452;-75
2023/05/10 16:46:40;;;;;;;2.70;1.67;;;;;;;19.76;33.39;100022.13;30839634;28;112206;-67
2023/05/10 17:01:41;;;;;;;2.83;1.55;;;;;;;18.96;34.90;100020.72;30842844;28;103626;-68
2023/05/10 17:16:41;;;;;;;3.22;1.80;;;;;;;18.60;36.06;100037.56;30722886;28;96837;-68
2023/05/10 17:31:41;;;;;;;3.38;1.80;;;;;;;18.36;37.12;100043.88;30736269;28;109488;-67
2023/05/10 17:46:42;;;;;;;3.05;1.92;;;;;;;17.93;38.72;100048.25;30845402;28;109476;-67
2023/05/10 18:01:42;;;;;;;6.15;1.92;;;;;;;17.64;39.70;100069.41;30857129;28;97133;-67
2023/05/10 18:16:43;;;;;;;8.07;2.53;;;;;;;17.34;40.57;100075.44;30850525;28;100485;-74
2023/05/10 18:31:43;;;;;;;7.50;3.78;;;;;;;16.96;41.52;100078.97;30846970;28;97915;-72
2023/05/10 18:46:43;;;;;;;10.15;4.25;;;;;;;16.70;42.82;100098.72;30732185;28;97333;-69
2023/05/10 19:01:44;;;;;;;7.95;3.33;;;;;;;16.32;43.47;100107.53;30726347;28;99554;-70
2023/05/10 19:16:44;;;;;;;7.80;3.92;;;;;;;15.72;45.22;100132.56;30725472;28;109328;-72
2023/05/10 19:31:44;;;;;;;7.63;3.80;;;;;;;15.02;46.45;100148.91;30726124;28;96788;-71
2023/05/10 19:46:45;;;;;;;10.85;4.70;;;;;;;14.53;47.95;100148.84;30802694;28;97534;-71
2023/05/10 20:01:45;;;;;;;7.32;4.47;;;;;;;14.18;48.88;100151.50;30840117;28;103241;-69
2023/05/10 20:16:45;;;;;;;7.55;4.82;;;;;;;14.03;49.78;100156.94;30848711;28;97787;-72
2023/05/10 20:31:46;;;;;;;8.27;4.78;;;;;;;14.07;49.96;100162.75;30849715;28;97441;-72
2023/05/10 20:46:46;;;;;;;8.02;4.18;;;;;;;14.14;50.07;100166.31;30851274;28;105035;-71
2023/05/10 21:01:47;;;;;;;9.13;4.10;;;;;;;14.22;49.73;100174.19;30869206;28;97317;-71
2023/05/10 21:16:47;;;;;;;7.30;4.20;;;;;;;14.22;49.55;100168.84;30868879;28;96700;-71
2023/05/10 21:31:47;;;;;;;8.93;4.53;;;;;;;14.20;49.28;100184.28;30868270;28;96793;-69
2023/05/10 21:46:48;;;;;;;9.43;3.90;;;;;;;14.12;49.08;100183.59;30867538;28;111007;-71
2023/05/10 22:01:48;;;;;;;8.07;4.70;;;;;;;13.98;49.28;100193.38;30865757;28;96947;-70
2023/05/10 22:16:48;;;;;;;9.90;4.20;;;;;;;13.95;48.86;100193.75;30769507;28;103353;-70
2023/05/10 22:31:49;;;;;;;6.50;3.58;;;;;;;13.85;48.44;100188.72;30752508;28;102966;-70
2023/05/10 22:46:49;;;;;;;8.27;3.72;;;;;;;13.78;47.92;100194.03;30797158;28;96768;-70
2023/05/10 23:01:49;;;;;;;8.00;3.30;;;;;;;13.67;48.04;100207.91;30845920;28;96881;-70
2023/05/10 23:16:50;;;;;;;6.82;3.33;;;;;;;13.42;48.40;100216.28;30858960;28;100761;-70
2023/05/10 23:31:50;;;;;;;7.20;4.13;;;;;;;13.20;48.84;100208.19;30859089;28;96749;-70
2023/05/10 23:46:51;;;;;;;6.72;3.92;;;;;;;13.08;48.93;100209.69;30857898;28;96548;-70
